createdAt,value
2024-02-22T00:05:16.893Z,75094.84
2024-02-22T00:15:24.051Z,75074.63
2024-02-22T00:25:29.339Z,75072.59
2024-02-22T00:35:34.981Z,75070.56
2024-02-22T00:45:37.702Z,75062.47
2024-02-22T00:55:40.870Z,75042.25
2024-02-22T01:05:46.760Z,75054.38
2024-02-22T01:15:49.181Z,75044.28
2024-02-22T01:25:55.155Z,75036.19
2024-02-22T01:36:03.558Z,75030.09
2024-02-22T01:46:09.577Z,75022.00
2024-02-22T01:56:15.172Z,74997.72
2024-02-22T02:06:21.187Z,74993.69
2024-02-22T02:16:26.026Z,74973.44
2024-02-22T02:26:29.576Z,74973.44
2024-02-22T02:36:37.038Z,74977.50
2024-02-22T02:46:41.711Z,74975.47
2024-02-22T02:56:48.138Z,74997.72
2024-02-22T03:06:52.756Z,75022.00
2024-02-22T03:16:54.971Z,75026.06
2024-02-22T03:26:59.585Z,75050.34
2024-02-22T03:37:02.276Z,75062.47
2024-02-22T03:47:07.179Z,75062.47
2024-02-22T03:57:09.801Z,75064.50
2024-02-22T04:07:16.098Z,75066.53
2024-02-22T04:17:20.859Z,75058.44
2024-02-22T04:27:28.106Z,75084.75
2024-02-22T04:37:32.881Z,75062.47
2024-02-22T04:47:40.337Z,75080.69
2024-02-22T04:57:42.760Z,75082.72
2024-02-22T05:07:46.746Z,75066.53
2024-02-22T05:17:51.838Z,75064.50
2024-02-22T05:27:57.196Z,75054.38
2024-02-22T05:38:01.975Z,75046.28
2024-02-22T05:48:07.711Z,75015.94
2024-02-22T05:58:11.132Z,75001.78
2024-02-22T06:08:13.855Z,74932.97
2024-02-22T06:18:18.568Z,74947.16
2024-02-22T06:28:20.896Z,74945.13
2024-02-22T06:38:25.404Z,74932.97
2024-02-22T06:48:30.121Z,74900.59
2024-02-22T06:58:33.001Z,74852.03
2024-02-22T07:08:40.409Z,74789.31
2024-02-22T07:18:42.969Z,74763.03
2024-02-22T07:28:47.758Z,74742.78
2024-02-22T07:38:52.735Z,74718.50
2024-02-22T07:48:55.435Z,74682.09
2024-02-22T07:58:59.567Z,74641.63
2024-02-22T08:09:08.282Z,74613.28
2024-02-22T08:19:12.770Z,74552.59
2024-02-22T08:29:15.408Z,74475.72
2024-02-22T08:39:19.664Z,74459.53
2024-02-22T08:49:23.823Z,74394.78
2024-02-22T08:59:32.983Z,74336.13
2024-02-22T09:09:38.631Z,74271.38
2024-02-22T09:19:52.972Z,74255.19
2024-02-22T09:30:06.962Z,74269.34
2024-02-22T09:40:16.713Z,74222.81
2024-02-22T09:50:26.205Z,74212.72
2024-02-22T10:00:28.675Z,74218.78
2024-02-22T10:10:34.023Z,74226.88
2024-02-22T10:20:41.150Z,74206.66
2024-02-22T10:30:47.220Z,74190.47
2024-02-22T10:40:51.967Z,74164.16
2024-02-22T10:50:58.338Z,74145.97
2024-02-22T11:01:08.784Z,74145.97
2024-02-22T11:11:16.742Z,74147.97
2024-02-22T11:21:22.430Z,74133.81
2024-02-22T11:31:29.613Z,74111.56
2024-02-22T11:41:35.490Z,74085.25
2024-02-22T11:51:41.568Z,74067.06
2024-02-22T12:01:44.129Z,74034.69
2024-02-22T12:11:48.307Z,74014.47
2024-02-22T12:21:53.028Z,73992.22
2024-02-22T12:32:06.813Z,73965.91
2024-02-22T12:42:12.370Z,73994.22
2024-02-22T12:52:15.019Z,74006.38
2024-02-22T13:02:26.503Z,74036.72
2024-02-22T13:12:39.121Z,74087.28
2024-02-22T13:22:42.003Z,74107.53
2024-02-22T13:32:45.781Z,74117.63
2024-02-22T13:42:52.904Z,74129.78
2024-02-22T13:52:58.385Z,74135.84
2024-02-22T14:03:03.373Z,74131.78
2024-02-22T14:13:06.754Z,74117.63
2024-02-22T14:23:15.274Z,74113.59
2024-02-22T14:33:21.862Z,74115.59
2024-02-22T14:43:26.650Z,74107.53
2024-02-22T14:53:28.976Z,74105.50
2024-02-22T15:03:40.572Z,74089.31
2024-02-22T15:13:50.730Z,74075.16
2024-02-22T15:23:55.990Z,74061.00
2024-02-22T15:34:05.276Z,74042.78
2024-02-22T15:44:11.230Z,74026.59
2024-02-22T15:54:16.448Z,74010.41
2024-02-22T16:04:26.792Z,73998.28
2024-02-22T16:14:36.066Z,73990.19
2024-02-22T16:24:50.351Z,73988.16
2024-02-22T16:34:55.181Z,73986.13
2024-02-22T16:45:05.138Z,73974.00
2024-02-22T16:55:09.856Z,73953.78
2024-02-22T17:05:12.634Z,73965.91
2024-02-22T17:15:15.742Z,73953.78
2024-02-22T17:25:18.808Z,73949.72
2024-02-22T17:35:30.584Z,73937.59
2024-02-22T17:45:38.351Z,73923.44
2024-02-22T17:55:40.591Z,73917.34
2024-02-22T18:05:43.086Z,73913.31
2024-02-22T18:15:52.595Z,73903.19
2024-02-22T18:25:57.492Z,73901.19
2024-02-22T18:36:00.504Z,73880.94
2024-02-22T18:46:05.227Z,73876.91
2024-02-22T18:56:09.968Z,73880.94
2024-02-22T19:06:14.712Z,73848.59
2024-02-22T19:16:20.295Z,73834.44
2024-02-22T19:26:25.267Z,73820.25
2024-02-22T19:36:38.180Z,73808.13
2024-02-22T19:46:50.458Z,73791.94
2024-02-22T19:56:57.842Z,73800.03
2024-02-22T20:07:02.429Z,73804.09
2024-02-22T20:17:05.138Z,73806.09
2024-02-22T20:27:10.534Z,73791.94
2024-02-22T20:37:12.943Z,73779.81
2024-02-22T20:47:19.098Z,73781.84
2024-02-22T20:57:24.449Z,73771.72
2024-02-22T21:07:28.184Z,73763.63
2024-02-22T21:17:37.142Z,73761.59
2024-02-22T21:27:43.286Z,73747.44
2024-02-22T21:37:50.433Z,73735.31
2024-02-22T21:48:02.587Z,73729.22
2024-02-22T21:58:07.653Z,73731.25
2024-02-22T22:08:10.384Z,73739.34
2024-02-22T22:18:15.536Z,73751.50
2024-02-22T22:28:20.681Z,73751.50
2024-02-22T22:38:28.805Z,73749.47
2024-02-22T22:48:36.140Z,73747.44
2024-02-22T22:58:38.648Z,73753.50
2024-02-22T23:08:46.099Z,73731.25
2024-02-22T23:18:50.102Z,73674.63
2024-02-22T23:28:54.751Z,73688.78
2024-02-22T23:38:59.265Z,73704.97
2024-02-22T23:49:05.159Z,73711.03
2024-02-22T23:59:08.118Z,73698.91
